Tiempo atmosférico en la estación meteorológica de San Cristóbal de La Laguna,Llano de los Loros, Santa Cruz de Tenerife (868 m.)



Fecha
DESCASC
Temp. máxima en grados centígrados (hora)
DESCASC
Temp. mínima en grados centígrados (hora)
DESCASC
Temp. media en grados centígrados
DESCASC
Racha de viento máxima en m/sg (hora)
DESCASC
Velocidad máxima media en intervalos de 10 minutos(hora)
DESCASC
Precipitaciones diarias en mm
DESCASC
Precipitaciones de 00:00 a 06:00 en mm
DESCASC
Precipitaciones de 06:00 a 12:00 en mm
DESCASC
Precipitaciones de 12:00 a 18:00 en mm
DESCASC
Precipitaciones de 18:00 a 24:00 en mm
DESCASC
05-04-2020 22.5 (14:30) 11.1 (01:30) 16.8 8.33 (22:50) 4.44 (04:10) 0.2 0 0.2 0 0
04-04-2020 20.4 (14:50) 11.9 (07:20) 16.1 9.72 (18:20) 5.28 (08:00) 0 0 0 0 0
03-04-2020 16.5 (13:00) 9.1 (04:00) 12.8 6.67 (23:40) 4.17 (10:10) 0 0 0 0 0
02-04-2020 19.3 (16:30) 7.3 (00:00) 13.3 7.5 (00:40) 4.44 (00:40) 0 0 0 0 0
01-04-2020 20.2 (12:40) 8.5 (00:00) 14.4 7.78 (22:50) 4.44 (05:30) 0.2 0 0.2 0 0
31-03-2020 19.7 (14:00) 10.7 (00:00) 15.2 13.33 (01:10) 7.78 (01:10) 0.2 0 0.2 0 0
30-03-2020 19 (14:50) 8 (00:00) 13.5 12.5 (23:59) 7.78 (23:59) 0.2 0.2 0 0 0
29-03-2020 19.1 (12:20) 8 (00:00) 13.6 6.67 (23:40) 4.44 (00:30) 0 0 0 0 0
28-03-2020 14.5 (16:30) 8 (00:00) 11.3 10 (00:30) 6.39 (08:20) 4.6 4 0.2 0.4 0
27-03-2020 16.3 (13:20) 8.4 (00:00) 12.3 14.17 (20:10) 6.11 (20:20) 14.2 1.2 0 0.6 12.4
26-03-2020 15.6 (12:30) 7 (00:00) 11.3 6.67 (19:30) 3.61 (21:20) 0.2 0 0 0.2 0
25-03-2020 16.4 (14:20) 8.6 (00:00) 12.5 10 (00:10) 4.17 (16:30) 0 0 0 0 0
24-03-2020 11.8 (16:20) 9.2 (00:00) 10.5 15 (00:40) 6.94 (03:00) 6.2 2.6 0.8 2.2 0.6
23-03-2020 9.9 (16:10) 7 (00:00) 8.4 20.83 (06:30) 9.44 (06:50) 24.4 8.6 8.2 3.2 4.4
22-03-2020 14.6 (12:20) 7.5 (23:59) 11.1 17.78 (22:20) 9.72 (22:20) 38.6 0 1.4 28.4 8.8
21-03-2020 13.1 (14:20) 7.2 (00:00) 10.2 16.39 (17:50) 8.33 (22:10) 0.6 0 0.4 0 0.2
20-03-2020 12.2 (13:20) 9.1 (00:00) 10.7 15.56 (02:40) 8.06 (03:00) 18.2 0 1.2 8.2 8.8
19-03-2020 11.5 (12:20) 9.6 (00:00) 10.6 20 (08:00) 11.11 (02:00) 12.4 1.2 10 1 0.2
18-03-2020 11.4 (15:10) 7.3 (00:00) 9.3 19.72 (21:30) 10.28 (18:40) 7.8 2.6 5 0.2 0
17-03-2020 9.9 (13:10) 7.5 (00:00) 8.7 15.56 (22:20) 6.67 (20:50) 22.2 7.2 6 4.4 4.6
16-03-2020 12.7 (10:50) 8 (00:00) 10.3 16.11 (18:40) 5 (14:50) 13.6 6.4 0 4.4 2.8
15-03-2020 11 (12:00) 8.6 (00:00) 9.8 15.56 (19:20) 5.83 (20:20) 15 7.4 1.2 5.2 1.2
14-03-2020 14.5 (11:50) 9.4 (00:00) 11.9 14.72 (21:50) 8.33 (22:10) 0 0 0 0 0
13-03-2020 21 (12:10) 10.4 (22:50) 15.7 11.67 (19:50) 7.5 (20:10) 0 0 0 0 0
12-03-2020 29.8 (12:40) 13.5 (00:00) 21.6 9.17 (08:20) 6.11 (08:40) 0 0 0 0 0
11-03-2020 28.6 (13:00) 14.5 (00:00) 21.6 8.06 (06:20) 5.28 (07:30) 0 0 0 0 0
10-03-2020 26.6 (11:20) 11.8 (00:00) 19.2 13.89 (00:30) 9.44 (00:30) 0 0 0 0 0
09-03-2020 25.9 (13:50) 12.5 (00:00) 19.2 13.89 (23:20) 9.44 (09:40) 0 0 0 0 0
08-03-2020 24.2 (12:40) 10.8 (00:00) 17.5 13.61 (14:10) 10.56 (14:10) 0 0 0 0 0

Gráficas

Temp. máximas Temp. mínimas Temp. medias Precipitaciones Rachas de viento máximas Velocidades máximas media en intervalos de 10 minutos

Datos horarios

Fecha y hora oficial Temperatura (ºC) Velocidad del viento (km/h) Dirección del viento Racha (km/h) Dirección de racha Precipitación (mm) Presión (hPa) Tendencia (hPa) Humedad (%)
2020-04-06 23:00:00 13.9 25 Noroeste 33 Noroeste 0 -- -- 80
2020-04-06 22:00:00 13.5 23 Noroeste 31 Noroeste 0 -- -- 90
2020-04-06 21:00:00 12.8 6 Noroeste 30 Noroeste 0 -- -- 96
2020-04-06 20:00:00 13.9 19 Noroeste 30 Noroeste 0 -- -- 96
2020-04-06 19:00:00 17.1 9 Noroeste 19 Noroeste 0 -- -- 81
2020-04-06 18:00:00 19.3 6 Oeste 17 Noroeste 0 -- -- 72
2020-04-06 17:00:00 19.7 5 Sudeste 12 Sur 0 -- -- 80
2020-04-06 16:00:00 20.2 4 Este 12 Sudeste 0 -- -- 77
2020-04-06 15:00:00 22 8 Sudeste 15 Sur 0 -- -- 76
2020-04-06 14:00:00 23.5 10 Sudeste 17 Sur 0 -- -- 65
2020-04-06 13:00:00 20.4 8 Sudeste 17 Sudeste 0 -- -- 76
2020-04-06 12:00:00 20.8 9 Sudeste 15 Sudeste 0 -- -- 75
2020-04-06 11:00:00 20.6 4 Sur 13 Sudeste 0 -- -- 73
2020-04-06 10:00:00 18.4 3 Oeste 6 Noroeste 0 -- -- 73
2020-04-06 09:00:00 16.5 4 Noroeste 23 Noroeste 0 -- -- 71
2020-04-06 08:00:00 13.4 16 Noroeste 30 Noroeste 0 -- -- 87
2020-04-06 07:00:00 13.3 21 Noroeste 28 Noroeste 0 -- -- 95
2020-04-06 06:00:00 14 9 Noroeste 21 Noroeste 0 -- -- 76
2020-04-06 05:00:00 14.2 15 Noroeste 23 Noroeste 0 -- -- 82
2020-04-06 04:00:00 14.7 13 Noroeste 19 Norte 0 -- -- 75
2020-04-06 03:00:00 13.4 12 Noroeste 28 Noroeste 0 -- -- 89
2020-04-06 02:00:00 13.3 20 Noroeste 30 Noroeste 0 -- -- 100
2020-04-06 01:00:00 13.6 16 Noroeste 32 Noroeste 0 -- -- 99
2020-04-06 00:00:00 13.8 10 Noroeste 25 Noroeste 0 -- -- 98
2020-04-05 23:00:00 13.8 12 Noroeste 30 Noroeste 0 -- -- 97
2020-04-05 22:00:00 14 11 Noroeste 25 Noroeste 0 -- -- 95
2020-04-05 21:00:00 14.2 9 Noroeste 25 Noroeste 0 -- -- 96
2020-04-05 20:00:00 15.1 8 Noroeste 20 Noroeste 0 -- -- 93
2020-04-05 19:00:00 18 2 Sudeste 9 Sudeste 0 -- -- 79
2020-04-05 18:00:00 19.5 6 Sudeste 12 Sudeste 0 -- -- 72
2020-04-05 17:00:00 19 5 Sur 14 Sudeste 0 -- -- 76
2020-04-05 16:00:00 20.4 6 Sudeste 14 Sudeste 0 -- -- 71
2020-04-05 15:00:00 19.9 5 Sur 13 Sudeste 0 -- -- 78
2020-04-05 14:00:00 21 5 Sudoeste 15 Noroeste 0 -- -- 64
2020-04-05 13:00:00 19.7 4 Este 15 Sur 0 -- -- 75
2020-04-05 12:00:00 20.4 4 Sur 13 Noroeste 0 -- -- 73
2020-04-05 11:00:00 18.4 5 Oeste 13 Sudoeste 0 -- -- 72
2020-04-05 10:00:00 17.1 4 Oeste 27 Noroeste 0 -- -- 77
2020-04-05 09:00:00 15.1 14 Noroeste 29 Noroeste 0.2 -- -- 83
2020-04-05 08:00:00 13.3 4 Noroeste 18 Oeste 0 -- -- 81
2020-04-05 07:00:00 12.7 4 Sudoeste 16 Noroeste 0 -- -- 86
2020-04-05 06:00:00 12.5 8 Noroeste 21 Noroeste 0 -- -- 98
2020-04-05 05:00:00 12.7 10 Noroeste 25 Noroeste 0 -- -- 96
2020-04-05 04:00:00 12.5 12 Noroeste 24 Noroeste 0 -- -- 89
2020-04-05 03:00:00 11.8 6 Noroeste 9 Oeste 0 -- -- 96
2020-04-05 02:00:00 12.4 3 Norte 13 Norte 0 -- -- 85
2020-04-05 01:00:00 11.5 2 Sudeste 13 Oeste 0 -- -- 95
2020-04-05 00:00:00 12.6 11 Noroeste 20 Norte 0 -- -- 90
2020-04-04 23:00:00 12.2 10 Noroeste 30 Noroeste 0 -- -- 96
2020-04-04 22:00:00 12.7 16 Noroeste 26 Noroeste 0 -- -- 92
2020-04-04 21:00:00 12.1 4 Oeste 13 Noroeste 0 -- -- 93
2020-04-04 20:00:00 14 5 Oeste 31 Noroeste 0 -- -- 85
2020-04-04 19:00:00 14.6 9 Noroeste 35 Noroeste 0 -- -- 86
2020-04-04 18:00:00 16.6 10 Noroeste 32 Oeste 0 -- -- 75
2020-04-04 17:00:00 18.7 11 Oeste 31 Oeste 0 -- -- 63
2020-04-04 16:00:00 19.8 13 Oeste 34 Oeste 0 -- -- 64
2020-04-04 15:00:00 20.2 13 Oeste 32 Noroeste 0 -- -- 62
2020-04-04 14:00:00 19.5 12 Oeste 27 Oeste 0 -- -- 62
2020-04-04 13:00:00 19.4 9 Oeste 24 Oeste 0 -- -- 65
2020-04-04 12:00:00 18.7 10 Oeste 23 Oeste 0 -- -- 66
2020-04-04 11:00:00 17.5 12 Oeste 29 Noroeste 0 -- -- 70
2020-04-04 10:00:00 16.1 11 Noroeste 29 Oeste 0 -- -- 69
2020-04-04 09:00:00 14.3 12 Noroeste 33 Noroeste 0 -- -- 87
2020-04-04 08:00:00 12 19 Noroeste 33 Noroeste 0 -- -- 97
2020-04-04 07:00:00 12.2 6 Noroeste 23 Noroeste 0 -- -- 87
2020-04-04 06:00:00 12.1 12 Noroeste 21 Noroeste 0 -- -- 89
2020-04-04 05:00:00 12.4 9 Oeste 23 Oeste 0 -- -- 89
2020-04-04 04:00:00 12.7 7 Noroeste 26 Noroeste 0 -- -- 87
2020-04-04 03:00:00 13 9 Noroeste 21 Noroeste 0 -- -- 87
2020-04-04 02:00:00 13.5 10 Noroeste 26 Oeste 0 -- -- 83
2020-04-04 01:00:00 13.2 11 Noroeste 25 Noroeste 0 -- -- 88
2020-04-04 00:00:00 13.1 10 Noroeste 24 Oeste 0 -- -- 94
2020-04-03 23:00:00 13 11 Noroeste 24 Noroeste 0 -- -- 96
2020-04-03 22:00:00 12.2 8 Oeste 15 Oeste 0 -- -- 100
2020-04-03 21:00:00 12.7 7 Oeste 21 Oeste 0 -- -- 100
2020-04-03 20:00:00 13.7 0 Calma 8 Este 0 -- -- 99
2020-04-03 19:00:00 13.8 3 Sudeste 10 Sur 0 -- -- 99
2020-04-03 18:00:00 13.8 7 Sudeste 16 Sudeste 0 -- -- 99
2020-04-03 17:00:00 14.2 6 Sur 13 Sudeste 0 -- -- 98
2020-04-03 16:00:00 13.8 5 Sur 20 Sur 0 -- -- 97
2020-04-03 15:00:00 14.2 5 Sur 23 Sur 0 -- -- 94
2020-04-03 14:00:00 15.1 11 Sur 21 Sur 0 -- -- 90
2020-04-03 13:00:00 16.5 13 Sudeste 20 Sur 0 -- -- 82
2020-04-03 12:00:00 12.9 3 Sur 13 Sudeste 0 -- -- 97
2020-04-03 11:00:00 12.7 8 Sur 22 Sudeste 0 -- -- 99
2020-04-03 10:00:00 11.4 11 Sudeste 17 Este 0 -- -- 100
2020-04-03 09:00:00 10.6 4 Oeste 9 Sudeste 0 -- -- 100
2020-04-03 08:00:00 10.2 6 Sudeste 10 Este 0 -- -- 100
2020-04-03 07:00:00 10 2 Oeste 8 Sudoeste 0 -- -- 100
2020-04-03 06:00:00 10.2 3 Sudoeste 12 Sur 0 -- -- 100
2020-04-03 05:00:00 9.6 3 Sudeste 12 Oeste 0 -- -- 100
2020-04-03 04:00:00 9.1 0 Calma 9 Sudeste 0 -- -- 100
2020-04-03 03:00:00 10.6 6 Sudeste 13 Sudeste 0 -- -- 100
2020-04-03 02:00:00 10.7 3 Sudeste 10 Sur 0 -- -- 100
2020-04-03 01:00:00 11.1 4 Sudeste 14 Sur 0 -- -- 99
2020-04-03 00:00:00 11.3 5 Sudeste 9 Sudeste 0 -- -- 99
2020-04-02 23:00:00 11.4 0 Calma 8 Noroeste 0 -- -- 99
2020-04-02 22:00:00 10.9 7 Noroeste 15 Noroeste 0 -- -- 99
2020-04-02 21:00:00 11.4 8 Noroeste 14 Noroeste 0 -- -- 98
2020-04-02 20:00:00 12.2 7 Noroeste 13 Noroeste 0 -- -- 95
2020-04-02 19:00:00 16.1 4 Sudeste 11 Sudeste 0 -- -- 74
2020-04-02 18:00:00 14.8 9 Sudeste 16 Sudeste 0 -- -- 84
2020-04-02 17:00:00 19.3 12 Sudeste 17 Sudeste 0 -- -- 69
2020-04-02 16:00:00 19 9 Sudeste 18 Sur 0 -- -- 70
2020-04-02 15:00:00 17.3 13 Sur 20 Sur 0 -- -- 77
2020-04-02 14:00:00 17.1 9 Sur 19 Sudeste 0 -- -- 79
2020-04-02 13:00:00 14.5 10 Sur 18 Sur 0 -- -- 88
2020-04-02 12:00:00 15.3 11 Sudeste 16 Sudeste 0 -- -- 83
2020-04-02 11:00:00 16.5 12 Sur 20 Sudeste 0 -- -- 78
2020-04-02 10:00:00 17.1 10 Sudeste 14 Sudeste 0 -- -- 76
2020-04-02 09:00:00 14.5 9 Sudeste 13 Este 0 -- -- 81
2020-04-02 08:00:00 8.3 5 Este 16 Este 0 -- -- 89
2020-04-02 07:00:00 7.3 0 Calma 6 Noroeste 0 -- -- 94
2020-04-02 06:00:00 8 0 Calma 10 Norte 0 -- -- 94
2020-04-02 05:00:00 7.5 0 Calma 12 Sudeste 0 -- -- 94
2020-04-02 04:00:00 8.4 3 Sudeste 11 Nordeste 0 -- -- 83
2020-04-02 03:00:00 9 4 Este 14 Norte 0 -- -- 82
2020-04-02 02:00:00 9.2 2 Norte 27 Noroeste 0 -- -- 96
2020-04-02 01:00:00 10 14 Noroeste 27 Noroeste 0 -- -- 98
2020-04-02 00:00:00 10 5 Noroeste 19 Noroeste 0 -- -- 99
2020-04-01 23:00:00 10.4 12 Noroeste 28 Norte 0 -- -- 98
2020-04-01 22:00:00 10.6 5 Norte 18 Noroeste 0 -- -- 97
2020-04-01 21:00:00 10.9 5 Norte 18 Noroeste 0 -- -- 97
2020-04-01 20:00:00 11.6 7 Noroeste 17 Noroeste 0 -- -- 94
2020-04-01 19:00:00 13.6 5 Oeste 14 Oeste 0 -- -- 87
2020-04-01 18:00:00 14.2 4 Sudeste 12 Sudeste 0 -- -- 91
2020-04-01 17:00:00 14.7 7 Sudeste 13 Sur 0 -- -- 88
2020-04-01 16:00:00 17.1 9 Sudeste 16 Sudeste 0 -- -- 81
2020-04-01 15:00:00 16.3 6 Sudeste 11 Sudeste 0 -- -- 84
2020-04-01 14:00:00 15.8 3 Sudoeste 19 Sur 0 -- -- 82
2020-04-01 13:00:00 18.4 11 Sudeste 19 Sudeste 0 -- -- 72
2020-04-01 12:00:00 17.6 5 Sur 13 Sur 0.2 -- -- 72
2020-04-01 11:00:00 15.4 4 Sur 14 Sur 0 -- -- 80
2020-04-01 10:00:00 16.5 7 Sudeste 12 Sudeste 0 -- -- 74
2020-04-01 09:00:00 14.2 5 Sudeste 9 Sudeste 0 -- -- 78
2020-04-01 08:00:00 9.9 5 Nordeste 19 Norte 0 -- -- 81
2020-04-01 07:00:00 10 9 Norte 26 Norte 0 -- -- 99
2020-04-01 06:00:00 10.3 11 Noroeste 22 Noroeste 0 -- -- 99
2020-04-01 05:00:00 10.2 15 Noroeste 21 Noroeste 0 -- -- 98
2020-04-01 04:00:00 10.5 11 Noroeste 17 Noroeste 0 -- -- 98
2020-04-01 03:00:00 10.7 5 Noroeste 13 Oeste 0 -- -- 98
2020-04-01 02:00:00 10.6 12 Noroeste 15 Noroeste 0 -- -- 98
2020-04-01 01:00:00 10.7 6 Noroeste 12 Noroeste 0 -- -- 97
2020-04-01 00:00:00 11 5 Noroeste 17 Noroeste 0 -- -- 97
2020-03-31 23:00:00 10.8 10 Noroeste 17 Noroeste 0 -- -- 97
2020-03-31 22:00:00 11.3 9 Noroeste 13 Noroeste 0 -- -- 98
2020-03-31 21:00:00 11.6 2 Noroeste 11 Norte 0 -- -- 98
2020-03-31 20:00:00 12 7 Noroeste 11 Noroeste 0 -- -- 96
2020-03-31 19:00:00 15.9 4 Oeste 14 Sudoeste 0 -- -- 77
2020-03-31 18:00:00 16.9 4 Sudoeste 10 Sur 0 -- -- 76
2020-03-31 17:00:00 14.9 4 Sudeste 10 Sur 0 -- -- 89
2020-03-31 16:00:00 16.2 6 Sudeste 13 Sudeste 0 -- -- 88
2020-03-31 15:00:00 15.8 5 Sudeste 18 Sur 0 -- -- 88
2020-03-31 14:00:00 19.7 11 Sudeste 16 Sudeste 0 -- -- 74
2020-03-31 13:00:00 17.7 6 Sur 13 Oeste 0 -- -- 79
2020-03-31 12:00:00 16.8 6 Oeste 14 Oeste 0 -- -- 75
2020-03-31 11:00:00 13.2 5 Oeste 15 Noroeste 0 -- -- 98
2020-03-31 10:00:00 11.8 5 Noroeste 16 Noroeste 0.2 -- -- 100
2020-03-31 09:00:00 11.5 4 Noroeste 17 Noroeste 0 -- -- 100
2020-03-31 08:00:00 11.2 5 Oeste 21 Noroeste 0 -- -- 100
2020-03-31 07:00:00 11.1 6 Oeste 22 Noroeste 0 -- -- 100
2020-03-31 06:00:00 11.1 6 Noroeste 21 Noroeste 0 -- -- 100
2020-03-31 05:00:00 11.4 5 Oeste 18 Oeste 0 -- -- 100
2020-03-31 04:00:00 11.3 6 Noroeste 25 Noroeste 0 -- -- 100
2020-03-31 03:00:00 11.3 13 Noroeste 44 Noroeste 0 -- -- 100
2020-03-31 02:00:00 11.1 21 Noroeste 48 Noroeste 0 -- -- 99
2020-03-31 01:00:00 11.3 27 Noroeste 47 Noroeste 0 -- -- 99
2020-03-31 00:00:00 11.2 28 Noroeste 45 Noroeste 0 -- -- 98
2020-03-30 23:00:00 11.8 14 Noroeste 39 Oeste 0 -- -- 100
2020-03-30 22:00:00 11.8 14 Noroeste 34 Noroeste 0 -- -- 99
2020-03-30 21:00:00 11.6 12 Noroeste 36 Noroeste 0 -- -- 99
2020-03-30 20:00:00 12.2 12 Noroeste 26 Oeste 0 -- -- 98
2020-03-30 19:00:00 12.3 5 Oeste 22 Oeste 0 -- -- 96
2020-03-30 18:00:00 13.8 6 Sudoeste 24 Oeste 0 -- -- 90
2020-03-30 17:00:00 15.3 2 Sudeste 12 Sudoeste 0 -- -- 88
2020-03-30 16:00:00 14.4 3 Sudeste 14 Sudeste 0 -- -- 91
2020-03-30 15:00:00 18.8 7 Sudeste 15 Sudeste 0 -- -- 76
2020-03-30 14:00:00 15.1 5 Sudeste 12 Sudeste 0 -- -- 89
2020-03-30 13:00:00 15.6 8 Sudeste 16 Sudeste 0 -- -- 83
2020-03-30 12:00:00 15.5 8 Sudeste 16 Sudeste 0 -- -- 81
2020-03-30 11:00:00 15.5 9 Sudeste 15 Sudeste 0 -- -- 79
2020-03-30 10:00:00 15.9 3 Este 9 Noroeste 0 -- -- 76
2020-03-30 09:00:00 12.3 4 Noroeste 13 Oeste 0 -- -- 83
2020-03-30 08:00:00 9.3 2 Norte 11 Nordeste 0 -- -- 87
2020-03-30 07:00:00 10.7 3 Este 13 Noroeste 0 -- -- 72
2020-03-30 06:00:00 8.4 6 Noroeste 14 Oeste 0 -- -- 90
2020-03-30 05:00:00 8.9 4 Noroeste 15 Noroeste 0 -- -- 90
2020-03-30 04:00:00 9.5 9 Noroeste 23 Noroeste 0 -- -- 94
2020-03-30 03:00:00 9.7 12 Noroeste 19 Noroeste 0 -- -- 97
2020-03-30 02:00:00 9.3 9 Noroeste 23 Noroeste 0 -- -- 92
2020-03-30 01:00:00 9 3 Norte 13 Noroeste 0.2 -- -- 96
2020-03-30 00:00:00 9.9 12 Noroeste 24 Noroeste 0 -- -- 85
2020-03-29 23:00:00 9.6 14 Noroeste 18 Noroeste 0 -- -- 88
2020-03-29 22:00:00 9.5 7 Noroeste 10 Noroeste 0 -- -- 100
2020-03-29 21:00:00 9.4 0 Calma 13 Oeste 0 -- -- 97
2020-03-29 20:00:00 11.2 5 Oeste 12 Sudoeste 0 -- -- 91
2020-03-29 19:00:00 12.3 4 Noroeste 17 Oeste 0 -- -- 89
2020-03-29 18:00:00 14.6 3 Sur 9 Sudeste 0 -- -- 86
2020-03-29 17:00:00 14.2 4 Sur 12 Sur 0 -- -- 84
2020-03-29 16:00:00 17.2 7 Sur 14 Sudeste 0 -- -- 77
2020-03-29 15:00:00 14.4 9 Sudeste 18 Sudeste 0 -- -- 88
2020-03-29 14:00:00 17.1 7 Sudeste 14 Sudeste 0 -- -- 75
2020-03-29 13:00:00 15.5 5 Sudeste 17 Sudeste 0 -- -- 79
2020-03-29 12:00:00 18.2 10 Sudeste 16 Sudeste 0 -- -- 72
2020-03-29 11:00:00 16.7 5 Sur 13 Sudeste 0 -- -- 65
2020-03-29 10:00:00 14.6 3 Oeste 12 Noroeste 0 -- -- 68
2020-03-29 09:00:00 12.2 3 Noroeste 21 Noroeste 0 -- -- 74
2020-03-29 08:00:00 8.7 14 Noroeste 19 Noroeste 0 -- -- 87
2020-03-29 07:00:00 8.2 14 Noroeste 19 Noroeste 0 -- -- 82
2020-03-29 06:00:00 8.2 10 Noroeste 21 Noroeste 0 -- -- 92
2020-03-29 05:00:00 8.7 14 Noroeste 21 Noroeste 0 -- -- 100
2020-03-29 04:00:00 9.1 11 Noroeste 17 Oeste 0 -- -- 100
2020-03-29 00:00:00 9.5 15 Noroeste 22 Noroeste 0 -- -- 100
2020-03-28 23:00:00 9.8 12 Noroeste 19 Noroeste 0 -- -- 100
2020-03-28 22:00:00 9.5 14 Noroeste 23 Noroeste 0 -- -- 100
2020-03-28 21:00:00 9.6 14 Noroeste 21 Noroeste 0 -- -- 100
2020-03-28 20:00:00 10.1 15 Noroeste 21 Noroeste 0 -- -- 99
2020-03-28 19:00:00 10.7 10 Noroeste 19 Noroeste 0 -- -- 97
2020-03-28 18:00:00 12.7 14 Noroeste 27 Noroeste 0 -- -- 87
2020-03-28 17:00:00 13.3 13 Noroeste 23 Norte 0 -- -- 84
2020-03-28 16:00:00 13.4 14 Noroeste 28 Norte 0 -- -- 82
2020-03-28 15:00:00 12.6 12 Noroeste 23 Noroeste 0 -- -- 93
2020-03-28 14:00:00 12.7 13 Noroeste 21 Noroeste 0 -- -- 90
2020-03-28 13:00:00 12.8 10 Noroeste 22 Norte 0.4 -- -- 91
2020-03-28 12:00:00 12.1 11 Noroeste 23 Noroeste 0.2 -- -- 93
2020-03-28 11:00:00 13.1 13 Noroeste 24 Noroeste 0 -- -- 85
2020-03-28 10:00:00 11.7 13 Noroeste 27 Norte 0 -- -- 95
2020-03-28 09:00:00 9.7 20 Noroeste 32 Noroeste 0 -- -- 100
2020-03-28 08:00:00 9.3 21 Noroeste 31 Noroeste 0 -- -- 100
2020-03-28 07:00:00 8.9 18 Noroeste 27 Noroeste 0 -- -- 100
2020-03-28 06:00:00 8.5 16 Noroeste 33 Noroeste 0 -- -- 100
2020-03-28 05:00:00 8.2 17 Noroeste 31 Oeste 1 -- -- 100
2020-03-28 04:00:00 8.4 15 Noroeste 31 Noroeste 1.4 -- -- 100
2020-03-28 03:00:00 9 14 Noroeste 25 Oeste 1 -- -- 100
2020-03-28 02:00:00 9.1 12 Noroeste 30 Noroeste 0.6 -- -- 100
2020-03-28 01:00:00 9.4 11 Noroeste 36 Noroeste 0 -- -- 100
2020-03-28 00:00:00 9.4 18 Noroeste 35 Noroeste 0.2 -- -- 100
2020-03-27 23:00:00 9.5 15 Noroeste 43 Noroeste 0.4 -- -- 100
2020-03-27 22:00:00 9.5 21 Noroeste 44 Noroeste 3.4 -- -- 100
2020-03-27 21:00:00 9.8 16 Noroeste 51 Noroeste 1.6 -- -- 100
2020-03-27 20:00:00 10.2 17 Noroeste 37 Noroeste 1.6 -- -- 100
2020-03-27 19:00:00 9.8 12 Noroeste 26 Noroeste 5.2 -- -- 100
2020-03-27 18:00:00 11 6 Noroeste 19 Noroeste 0.4 -- -- 93
2020-03-27 17:00:00 12.3 6 Noroeste 22 Noroeste 0 -- -- 86
2020-03-27 16:00:00 12.6 8 Noroeste 26 Oeste 0 -- -- 85
2020-03-27 15:00:00 13.9 9 Oeste 27 Oeste 0.2 -- -- 78
2020-03-27 14:00:00 15.7 9 Sudoeste 27 Noroeste 0 -- -- 70
2020-03-27 13:00:00 15.9 10 Oeste 23 Sudoeste 0 -- -- 69
2020-03-27 12:00:00 14.3 9 Oeste 26 Oeste 0 -- -- 76
2020-03-27 11:00:00 13.6 7 Noroeste 20 Noroeste 0 -- -- 88
2020-03-27 10:00:00 11.2 6 Noroeste 26 Noroeste 0 -- -- 100
2020-03-27 09:00:00 10.4 10 Noroeste 27 Noroeste 0 -- -- 100
2020-03-27 08:00:00 9.2 10 Oeste 24 Noroeste 0 -- -- 100
2020-03-27 07:00:00 8.8 10 Noroeste 35 Noroeste 0 -- -- 100
2020-03-27 06:00:00 8.5 17 Noroeste 35 Noroeste 0.2 -- -- 100
2020-03-27 05:00:00 8.9 19 Noroeste 32 Noroeste 0.2 -- -- 100
2020-03-27 04:00:00 9 15 Noroeste 24 Noroeste 0.4 -- -- 100
2020-03-27 03:00:00 9.5 9 Noroeste 24 Noroeste 0 -- -- 100
2020-03-27 02:00:00 9.6 8 Noroeste 24 Noroeste 0 -- -- 100
2020-03-27 01:00:00 9.3 7 Noroeste 27 Noroeste 0.4 -- -- 100
2020-03-27 00:00:00 9.6 7 Noroeste 22 Noroeste 0 -- -- 100
2020-03-26 23:00:00 9.4 10 Noroeste 22 Norte 0 -- -- 99
2020-03-26 22:00:00 9.6 9 Norte 22 Norte 0 -- -- 98
2020-03-26 21:00:00 9.5 10 Noroeste 22 Noroeste 0 -- -- 97
2020-03-26 20:00:00 9.7 9 Noroeste 24 Noroeste 0 -- -- 97
2020-03-26 19:00:00 9.8 12 Noroeste 20 Noroeste 0 -- -- 93
2020-03-26 18:00:00 11.4 12 Noroeste 21 Noroeste 0 -- -- 85
2020-03-26 17:00:00 13.1 9 Noroeste 18 Oeste 0.2 -- -- 81
2020-03-26 16:00:00 12.6 3 Sudeste 17 Oeste 0 -- -- 91
2020-03-26 15:00:00 12.5 5 Sudoeste 14 Oeste 0 -- -- 88
2020-03-26 14:00:00 13.3 4 Sur 17 Oeste 0 -- -- 79
2020-03-26 13:00:00 12.8 10 Noroeste 22 Noroeste 0 -- -- 83
2020-03-26 12:00:00 14.6 6 Nordeste 18 Oeste 0 -- -- 72
2020-03-26 11:00:00 12.2 3 Noroeste 10 Sudoeste 0 -- -- 81
2020-03-26 10:00:00 12 3 Sudeste 7 Sudoeste 0 -- -- 81
2020-03-26 09:00:00 10.3 2 Sudeste 9 Este 0 -- -- 87
2020-03-26 08:00:00 9.2 2 Sur 13 Norte 0 -- -- 84
2020-03-26 07:00:00 7.7 8 Norte 13 Norte 0 -- -- 89
2020-03-26 06:00:00 7.8 3 Nordeste 12 Nordeste 0 -- -- 91
2020-03-26 05:00:00 8.7 6 Nordeste 17 Este 0 -- -- 90
2020-03-26 04:00:00 8.7 0 Calma 5 Sudeste 0 -- -- 98
2020-03-26 03:00:00 9.1 4 Este 9 Este 0 -- -- 98
2020-03-26 02:00:00 9.1 2 Este 14 Este 0 -- -- 97
2020-03-26 01:00:00 9.1 7 Sudeste 13 Sudeste 0 -- -- 98
2020-03-26 00:00:00 9.4 5 Nordeste 20 Nordeste 0 -- -- 96
2020-03-25 23:00:00 9.4 6 Nordeste 22 Nordeste 0 -- -- 98
2020-03-25 22:00:00 9.2 9 Norte 18 Norte 0 -- -- 97
2020-03-25 21:00:00 9.4 8 Norte 20 Nordeste 0 -- -- 96
2020-03-25 20:00:00 9.6 4 Oeste 24 Noroeste 0 -- -- 96
2020-03-25 19:00:00 9.9 10 Noroeste 26 Noroeste 0 -- -- 90
2020-03-25 18:00:00 10.9 11 Noroeste 24 Noroeste 0 -- -- 88
2020-03-25 17:00:00 12.7 10 Norte 26 Norte 0 -- -- 76
2020-03-25 16:00:00 13.4 9 Norte 23 Nordeste 0 -- -- 81
2020-03-25 15:00:00 12.3 10 Norte 24 Noroeste 0 -- -- 86
2020-03-25 14:00:00 14.1 8 Norte 23 Noroeste 0 -- -- 71
2020-03-25 13:00:00 14.5 9 Noroeste 26 Norte 0 -- -- 66
2020-03-25 12:00:00 14.4 8 Noroeste 21 Noroeste 0 -- -- 76
2020-03-25 11:00:00 11.2 7 Noroeste 13 Este 0 -- -- 92
2020-03-25 10:00:00 11.9 4 Norte 15 Sudoeste 0 -- -- 86
2020-03-25 09:00:00 10.8 3 Nordeste 17 Norte 0 -- -- 97
2020-03-25 08:00:00 9.3 9 Norte 22 Nordeste 0 -- -- 100
2020-03-25 07:00:00 9 10 Norte 21 Norte 0 -- -- 100
2020-03-25 06:00:00 9 10 Norte 19 Noroeste 0 -- -- 100
2020-03-25 05:00:00 9.1 7 Norte 21 Norte 0 -- -- 100
2020-03-25 04:00:00 9.4 6 Norte 19 Norte 0 -- -- 100
2020-03-25 03:00:00 9.2 6 Norte 22 Norte 0 -- -- 100
2020-03-25 02:00:00 9.7 7 Noroeste 27 Noroeste 0 -- -- 100
2020-03-25 01:00:00 9.6 11 Noroeste 36 Noroeste 0 -- -- 100
2020-03-25 00:00:00 9.8 17 Noroeste 33 Norte 0.4 -- -- 100
2020-03-24 23:00:00 9.6 14 Norte 30 Norte 0 -- -- 100
2020-03-24 22:00:00 9.6 14 Noroeste 29 Noroeste 0 -- -- 100
2020-03-24 21:00:00 9.5 17 Noroeste 33 Noroeste 0 -- -- 100
2020-03-24 20:00:00 9.5 10 Noroeste 49 Norte 0 -- -- 100
2020-03-24 19:00:00 9.6 24 Noroeste 42 Noroeste 0.2 -- -- 99
2020-03-24 18:00:00 10.2 17 Noroeste 28 Noroeste 0 -- -- 96
2020-03-24 17:00:00 11.6 16 Noroeste 30 Noroeste 0 -- -- 91
2020-03-24 16:00:00 11.4 15 Noroeste 32 Noroeste 0 -- -- 99
2020-03-24 15:00:00 10 18 Noroeste 30 Noroeste 0 -- -- 100
2020-03-24 14:00:00 9.6 14 Noroeste 36 Noroeste 1 -- -- 100
2020-03-24 13:00:00 10.5 17 Noroeste 36 Noroeste 1.2 -- -- 100
2020-03-24 12:00:00 10 15 Noroeste 35 Noroeste 0.6 -- -- 100
2020-03-24 11:00:00 10.9 16 Noroeste 36 Norte 0 -- -- 100
2020-03-24 10:00:00 9.9 9 Noroeste 42 Noroeste 0 -- -- 100
2020-03-24 09:00:00 9.8 19 Noroeste 44 Noroeste 0 -- -- 100
2020-03-24 08:00:00 9.8 16 Noroeste 42 Noroeste 0.2 -- -- 100
2020-03-24 07:00:00 9.6 18 Noroeste 53 Noroeste 0 -- -- 100
2020-03-24 06:00:00 9.7 17 Noroeste 45 Noroeste 0 -- -- 100
2020-03-24 05:00:00 9.5 22 Noroeste 52 Norte 0.2 -- -- 100
2020-03-24 04:00:00 9.8 20 Norte 49 Noroeste 2 -- -- 100
2020-03-24 03:00:00 10 25 Noroeste 48 Noroeste 0 -- -- 100
2020-03-24 02:00:00 9.9 14 Noroeste 49 Norte 0.2 -- -- 100
2020-03-24 01:00:00 9.9 14 Norte 54 Noroeste 0.2 -- -- 100
2020-03-24 00:00:00 9.8 9 Noroeste 51 Noroeste 3.8 -- -- 100
2020-03-23 23:00:00 9.8 17 Norte 62 Norte 0.2 -- -- 100
2020-03-23 22:00:00 9.5 30 Noroeste 56 Noroeste 0.2 -- -- 100
2020-03-23 21:00:00 9.5 26 Norte 62 Noroeste 0 -- -- 100
2020-03-23 20:00:00 9.4 21 Noroeste 57 Norte 0.2 -- -- 100
2020-03-23 19:00:00 9.6 23 Noroeste 52 Noroeste 0 -- -- 100
2020-03-23 18:00:00 9.6 15 Norte 57 Oeste 0.2 -- -- 100
2020-03-23 17:00:00 9.5 20 Norte 50 Noroeste 0.2 -- -- 100
2020-03-23 16:00:00 9.7 17 Noroeste 48 Noroeste 0.2 -- -- 100
2020-03-23 15:00:00 9.7 18 Noroeste 55 Noroeste 0.4 -- -- 100
2020-03-23 14:00:00 9.5 22 Noroeste 51 Noroeste 1.4 -- -- 100
2020-03-23 13:00:00 9.2 23 Noroeste 63 Noroeste 0.8 -- -- 100
2020-03-23 12:00:00 9 15 Norte 44 Nordeste 0.2 -- -- 100
2020-03-23 11:00:00 8.9 8 Noroeste 47 Noroeste 0.4 -- -- 100
2020-03-23 10:00:00 8.3 13 Noroeste 58 Oeste 0.2 -- -- 100
2020-03-23 09:00:00 8.2 28 Norte 71 Noroeste 6.8 -- -- 100
2020-03-23 08:00:00 8.1 31 Noroeste 67 Noroeste 0.2 -- -- 100
2020-03-23 07:00:00 8.1 30 Noroeste 75 Noroeste 0.4 -- -- 100
2020-03-23 06:00:00 7.6 31 Noroeste 64 Noroeste 0.6 -- -- 100
2020-03-23 05:00:00 7.5 29 Noroeste 73 Noroeste 2.4 -- -- 100
2020-03-23 04:00:00 7.8 27 Noroeste 60 Noroeste 1.4 -- -- 100
2020-03-23 03:00:00 7.7 24 Noroeste 53 Noroeste 4.2 -- -- 100
2020-03-23 02:00:00 8 25 Noroeste 53 Oeste 0 -- -- 100
2020-03-23 01:00:00 8.1 27 Noroeste 58 Norte 0 -- -- 100
2020-03-23 00:00:00 7.5 25 Noroeste 62 Noroeste 4 -- -- 100
2020-03-22 23:00:00 8.5 28 Noroeste 64 Noroeste 0.2 -- -- 100
2020-03-22 22:00:00 8.9 31 Noroeste 56 Noroeste 4.4 -- -- 100
2020-03-22 21:00:00 8.5 27 Noroeste 62 Noroeste 0.2 -- -- 100
2020-03-22 20:00:00 9 18 Noroeste 55 Noroeste 0 -- -- 100
2020-03-22 19:00:00 9.1 15 Noroeste 60 Noroeste 0 -- -- 100
2020-03-22 18:00:00 9.1 26 Noroeste 63 Noroeste 2.4 -- -- 100
2020-03-22 17:00:00 8.8 24 Noroeste 51 Noroeste 13.6 -- -- 100
2020-03-22 16:00:00 10.3 16 Noroeste 38 Oeste 12.4 -- -- 99
2020-03-22 15:00:00 12.2 11 Noroeste 35 Oeste 0 -- -- 77
2020-03-22 14:00:00 13.4 14 Noroeste 35 Oeste 0 -- -- 70
2020-03-22 13:00:00 13.9 10 Noroeste 31 Noroeste 0 -- -- 68
2020-03-22 12:00:00 14.4 12 Oeste 30 Oeste 0 -- -- 66
2020-03-22 11:00:00 12.3 10 Noroeste 37 Noroeste 0.2 -- -- 82
2020-03-22 10:00:00 9.9 17 Noroeste 46 Noroeste 0 -- -- 94
2020-03-22 09:00:00 9.1 21 Noroeste 47 Noroeste 0 -- -- 99
2020-03-22 08:00:00 7.9 20 Noroeste 45 Oeste 1.2 -- -- 100
2020-03-22 07:00:00 8.3 20 Noroeste 41 Noroeste 0 -- -- 99
2020-03-22 06:00:00 8.1 22 Noroeste 42 Noroeste 0 -- -- 97
2020-03-22 05:00:00 8.5 25 Noroeste 47 Noroeste 0 -- -- 96
2020-03-22 04:00:00 8.8 23 Noroeste 42 Noroeste 0 -- -- 98
2020-03-22 03:00:00 8.7 21 Noroeste 45 Noroeste 0 -- -- 89
2020-03-22 02:00:00 8.7 23 Noroeste 48 Noroeste 0 -- -- 92
2020-03-22 01:00:00 8.6 22 Noroeste 50 Noroeste 0 -- -- 84
2020-03-22 00:00:00 8.7 28 Noroeste 50 Noroeste 0 -- -- 89
2020-03-21 23:00:00 8.7 28 Noroeste 57 Norte 0 -- -- 80
2020-03-21 22:00:00 8.7 26 Noroeste 55 Noroeste 0 -- -- 88
2020-03-21 21:00:00 8.4 22 Noroeste 50 Noroeste 0.2 -- -- 99
2020-03-21 20:00:00 8.8 22 Noroeste 53 Noroeste 0 -- -- 98
2020-03-21 19:00:00 9.1 22 Noroeste 54 Noroeste 0 -- -- 97
2020-03-21 18:00:00 9.3 23 Noroeste 59 Noroeste 0 -- -- 92
2020-03-21 17:00:00 10.3 20 Norte 50 Noroeste 0 -- -- 83
2020-03-21 16:00:00 11.3 22 Noroeste 44 Noroeste 0 -- -- 76
2020-03-21 15:00:00 12 17 Noroeste 42 Noroeste 0 -- -- 76
2020-03-21 14:00:00 11.6 11 Noroeste 37 Noroeste 0 -- -- 81
2020-03-21 13:00:00 11 10 Noroeste 37 Nordeste 0 -- -- 82
2020-03-21 12:00:00 9.9 9 Noroeste 26 Nordeste 0 -- -- 89
2020-03-21 11:00:00 11.8 8 Sudoeste 25 Oeste 0 -- -- 80
2020-03-21 10:00:00 9.6 4 Sudoeste 23 Noroeste 0 -- -- 96
2020-03-21 09:00:00 8.3 5 Sudoeste 28 Sudeste 0.4 -- -- 98
2020-03-21 08:00:00 7.7 6 Sur 23 Este 0 -- -- 96
2020-03-21 07:00:00 7.4 9 Norte 32 Norte 0 -- -- 95
2020-03-21 06:00:00 7.5 4 Norte 28 Noroeste 0 -- -- 98
2020-03-21 05:00:00 7.6 6 Sur 33 Norte 0 -- -- 100
2020-03-21 04:00:00 7.7 9 Noroeste 28 Oeste 0 -- -- 100
2020-03-21 03:00:00 7.9 8 Sudoeste 29 Oeste 0 -- -- 100
2020-03-21 02:00:00 8.4 8 Oeste 36 Oeste 0 -- -- 100
2020-03-21 01:00:00 8.9 11 Noroeste 35 Noroeste 0 -- -- 100
2020-03-21 00:00:00 9.3 13 Norte 29 Noroeste 0 -- -- 100
2020-03-20 23:00:00 9.5 7 Noroeste 29 Noroeste 0.2 -- -- 100
2020-03-20 22:00:00 9.8 8 Norte 28 Noroeste 1 -- -- 100
2020-03-20 21:00:00 10.2 8 Norte 27 Noroeste 0.6 -- -- 100
2020-03-20 20:00:00 10.2 8 Noroeste 25 Noroeste 3.2 -- -- 100
2020-03-20 19:00:00 10.2 9 Norte 34 Noroeste 3.8 -- -- 100
2020-03-20 18:00:00 10.3 5 Noroeste 32 Noroeste 4.8 -- -- 100
2020-03-20 17:00:00 10.5 12 Noroeste 42 Noroeste 1.8 -- -- 100
2020-03-20 16:00:00 10.4 11 Norte 41 Norte 1.6 -- -- 99
2020-03-20 15:00:00 10.9 17 Noroeste 46 Noroeste 0 -- -- 95
2020-03-20 14:00:00 11.7 17 Noroeste 41 Noroeste 0 -- -- 91
2020-03-20 13:00:00 12 13 Noroeste 34 Norte 0 -- -- 87
2020-03-20 12:00:00 10.7 15 Noroeste 39 Noroeste 0 -- -- 98
2020-03-20 11:00:00 10.4 18 Norte 47 Noroeste 0 -- -- 100
2020-03-20 10:00:00 10 10 Noroeste 42 Noroeste 0 -- -- 100
2020-03-20 09:00:00 9.7 20 Noroeste 48 Noroeste 0 -- -- 100
2020-03-20 08:00:00 9.6 20 Noroeste 45 Noroeste 0.4 -- -- 100
2020-03-20 07:00:00 10.1 17 Norte 44 Oeste 0.8 -- -- 100
2020-03-20 06:00:00 9.3 17 Norte 51 Noroeste 0 -- -- 100
2020-03-20 05:00:00 10.1 14 Norte 47 Noroeste 0 -- -- 100
2020-03-20 04:00:00 10 26 Noroeste 48 Norte 0 -- -- 100
2020-03-20 03:00:00 10.1 29 Noroeste 56 Noroeste 0 -- -- 100
2020-03-20 02:00:00 9.9 18 Noroeste 49 Noroeste 0 -- -- 100
2020-03-20 01:00:00 10.3 18 Noroeste 49 Noroeste 0 -- -- 100
2020-03-20 00:00:00 10.4 25 Noroeste 51 Noroeste 0 -- -- 100
2020-03-19 23:00:00 10.6 11 Noroeste 45 Noroeste 0 -- -- 100
2020-03-19 22:00:00 10.8 18 Noroeste 48 Noroeste 0 -- -- 100
2020-03-19 21:00:00 10.8 18 Noroeste 51 Noroeste 0.2 -- -- 100
2020-03-19 20:00:00 10.6 19 Noroeste 55 Noroeste 0 -- -- 100
2020-03-19 19:00:00 11 13 Noroeste 46 Noroeste 0 -- -- 100
2020-03-19 18:00:00 11 14 Noroeste 45 Noroeste 0 -- -- 100
2020-03-19 17:00:00 11.2 14 Noroeste 39 Oeste 0 -- -- 100
2020-03-19 16:00:00 11.3 10 Noroeste 54 Oeste 0 -- -- 100
2020-03-19 15:00:00 11.3 17 Noroeste 44 Noroeste 0 -- -- 100
2020-03-19 14:00:00 11.5 10 Noroeste 42 Noroeste 0.8 -- -- 100
2020-03-19 13:00:00 11.4 10 Norte 50 Noroeste 0.2 -- -- 100
2020-03-19 12:00:00 11.3 17 Noroeste 61 Noroeste 3.2 -- -- 100
2020-03-19 11:00:00 11.3 13 Noroeste 66 Noroeste 1.4 -- -- 100
2020-03-19 10:00:00 11.1 26 Noroeste 62 Noroeste 0.8 -- -- 100
2020-03-19 09:00:00 10.8 23 Noroeste 60 Noroeste 1.4 -- -- 100
2020-03-19 08:00:00 10.7 26 Noroeste 72 Noroeste 3.2 -- -- 100
2020-03-19 07:00:00 10.4 20 Norte 54 Noroeste 0 -- -- 100
2020-03-19 06:00:00 10.1 27 Norte 65 Noroeste 0 -- -- 100
2020-03-19 05:00:00 10 22 Noroeste 57 Norte 1 -- -- 100
2020-03-19 04:00:00 9.9 25 Noroeste 69 Noroeste 0.2 -- -- 100
2020-03-19 03:00:00 9.8 32 Noroeste 69 Noroeste 0 -- -- 100
2020-03-19 02:00:00 9.8 40 Noroeste 71 Noroeste 0 -- -- 98
2020-03-19 01:00:00 9.6 32 Noroeste 71 Norte 0 -- -- 96
2020-03-19 00:00:00 9.6 31 Noroeste 62 Norte 0 -- -- 94
2020-03-18 23:00:00 9.4 31 Noroeste 63 Noroeste 0 -- -- 98
2020-03-18 22:00:00 9.6 31 Noroeste 71 Noroeste 0 -- -- 99
2020-03-18 21:00:00 9.6 26 Noroeste 66 Norte 0 -- -- 98
2020-03-18 20:00:00 9.6 30 Noroeste 65 Noroeste 0 -- -- 97
2020-03-18 19:00:00 9.5 34 Noroeste 65 Noroeste 0 -- -- 95
2020-03-18 18:00:00 9.6 30 Noroeste 69 Noroeste 0 -- -- 97
2020-03-18 17:00:00 9.7 25 Noroeste 58 Noroeste 0 -- -- 98
2020-03-18 16:00:00 10.1 30 Noroeste 62 Norte 0 -- -- 87
2020-03-18 15:00:00 11.1 26 Noroeste 57 Noroeste 0 -- -- 90
2020-03-18 14:00:00 10.6 21 Noroeste 50 Noroeste 0 -- -- 91
2020-03-18 13:00:00 9.6 25 Norte 59 Noroeste 0.2 -- -- 99
2020-03-18 12:00:00 9.3 17 Noroeste 54 Noroeste 0 -- -- 99
2020-03-18 11:00:00 9.3 20 Noroeste 48 Noroeste 0 -- -- 100
2020-03-18 10:00:00 8.4 14 Norte 42 Oeste 0.2 -- -- 100
2020-03-18 09:00:00 8.4 11 Noroeste 45 Norte 0 -- -- 100
2020-03-18 08:00:00 8.2 18 Norte 46 Noroeste 1.8 -- -- 100
2020-03-18 07:00:00 7.9 20 Noroeste 46 Noroeste 3 -- -- 100
2020-03-18 06:00:00 7.9 18 Norte 50 Noroeste 0.4 -- -- 100
2020-03-18 05:00:00 8.3 18 Noroeste 46 Norte 0.6 -- -- 100
2020-03-18 04:00:00 7.8 14 Noroeste 48 Noroeste 0.8 -- -- 100
2020-03-18 03:00:00 7.3 19 Noroeste 48 Noroeste 0 -- -- 100
2020-03-18 02:00:00 8.3 17 Norte 43 Noroeste 0.6 -- -- 100
2020-03-18 01:00:00 8.2 22 Noroeste 50 Noroeste 0.2 -- -- 100
2020-03-18 00:00:00 8.6 17 Norte 47 Noroeste 0.4 -- -- 100
2020-03-17 23:00:00 8.8 16 Noroeste 56 Noroeste 1.4 -- -- 100
2020-03-17 22:00:00 8.7 21 Noroeste 52 Noroeste 0.4 -- -- 100
2020-03-17 21:00:00 8.7 23 Noroeste 50 Noroeste 1.2 -- -- 100
2020-03-17 20:00:00 8.6 18 Noroeste 47 Noroeste 0 -- -- 100
2020-03-17 19:00:00 8.8 13 Noroeste 46 Noroeste 1.2 -- -- 100
2020-03-17 18:00:00 8.9 14 Noroeste 42 Noroeste 0 -- -- 100
2020-03-17 17:00:00 9.1 13 Noroeste 48 Noroeste 0.6 -- -- 100
2020-03-17 16:00:00 9.2 15 Noroeste 37 Noroeste 0.4 -- -- 100
2020-03-17 15:00:00 9.8 11 Noroeste 40 Oeste 0.6 -- -- 100
2020-03-17 14:00:00 9.6 14 Noroeste 45 Norte 0.8 -- -- 100
2020-03-17 13:00:00 9.4 11 Nordeste 35 Norte 2 -- -- 100
2020-03-17 12:00:00 9 8 Norte 35 Noroeste 1.6 -- -- 99
2020-03-17 11:00:00 8.8 9 Norte 25 Noroeste 0.6 -- -- 100
2020-03-17 10:00:00 7.9 6 Noroeste 27 Oeste 0 -- -- 100
2020-03-17 09:00:00 7.9 8 Noroeste 31 Noroeste 1 -- -- 100
2020-03-17 08:00:00 7.8 8 Noroeste 34 Noroeste 0.8 -- -- 100
2020-03-17 07:00:00 7.9 11 Oeste 33 Noroeste 2 -- -- 100
2020-03-17 06:00:00 7.8 10 Noroeste 36 Noroeste 1.2 -- -- 100
2020-03-17 05:00:00 7.8 9 Noroeste 30 Noroeste 0.4 -- -- 100
2020-03-17 04:00:00 7.7 13 Norte 29 Noroeste 2.6 -- -- 100
2020-03-17 03:00:00 7.6 8 Noroeste 35 Norte 0.4 -- -- 100
2020-03-17 02:00:00 7.7 9 Norte 34 Noroeste 0 -- -- 100
2020-03-17 01:00:00 8.1 11 Noroeste 33 Norte 2.6 -- -- 100
2020-03-17 00:00:00 8.7 13 Sudoeste 50 Oeste 1.2 -- -- 100
2020-03-16 23:00:00 8.8 12 Noroeste 37 Noroeste 0.2 -- -- 100
2020-03-16 22:00:00 9.3 11 Norte 43 Noroeste 0.2 -- -- 100
2020-03-16 21:00:00 9.6 15 Noroeste 48 Oeste 0 -- -- 100
2020-03-16 20:00:00 9.7 10 Noroeste 45 Noroeste 0.2 -- -- 100
2020-03-16 19:00:00 9.9 14 Noroeste 58 Oeste 1 -- -- 100
2020-03-16 18:00:00 10 10 Oeste 46 Noroeste 0.2 -- -- 100
2020-03-16 17:00:00 10.3 14 Norte 52 Nordeste 3.2 -- -- 100
2020-03-16 16:00:00 10.6 12 Noroeste 50 Nordeste 0.6 -- -- 99
2020-03-16 15:00:00 10.7 13 Noroeste 42 Noroeste 0.2 -- -- 98
2020-03-16 14:00:00 11 15 Noroeste 41 Oeste 0.2 -- -- 95
2020-03-16 13:00:00 12.1 7 Noroeste 43 Noroeste 0 -- -- 88
2020-03-16 12:00:00 12.1 10 Norte 45 Noroeste 0 -- -- 83
2020-03-16 11:00:00 12.7 11 Norte 33 Noroeste 0 -- -- 76
2020-03-16 10:00:00 10.5 12 Noroeste 57 Norte 0 -- -- 90
2020-03-16 09:00:00 9.9 15 Noroeste 43 Noroeste 0 -- -- 94
2020-03-16 08:00:00 9.5 9 Oeste 39 Noroeste 0 -- -- 97
2020-03-16 07:00:00 8.9 8 Noroeste 46 Oeste 0 -- -- 100
2020-03-16 06:00:00 9.1 13 Noroeste 40 Nordeste 0 -- -- 100
2020-03-16 05:00:00 9.2 13 Noroeste 46 Nordeste 0 -- -- 100
2020-03-16 04:00:00 9.7 10 Sudoeste 37 Noroeste 0 -- -- 100
2020-03-16 03:00:00 10 9 Noroeste 37 Noroeste 1.2 -- -- 100
2020-03-16 02:00:00 9.9 9 Nordeste 44 Noroeste 1.4 -- -- 100
2020-03-16 01:00:00 10.2 8 Noroeste 38 Oeste 3.8 -- -- 100
2020-03-16 00:00:00 9.6 8 Noroeste 33 Oeste 0.8 -- -- 99
2020-03-15 23:00:00 9.4 11 Oeste 46 Noroeste 0.4 -- -- 99
2020-03-15 22:00:00 9.7 11 Noroeste 41 Noroeste 0 -- -- 98
2020-03-15 21:00:00 9.3 19 Noroeste 42 Noroeste 0 -- -- 99
2020-03-15 20:00:00 9.7 13 Noroeste 56 Noroeste 0 -- -- 100
2020-03-15 19:00:00 9.6 13 Noroeste 43 Oeste 0 -- -- 99
2020-03-15 18:00:00 9.8 12 Norte 48 Oeste 0 -- -- 99
2020-03-15 17:00:00 10 10 Noroeste 51 Oeste 0.2 -- -- 99
2020-03-15 16:00:00 10 9 Noroeste 40 Noroeste 0 -- -- 99
2020-03-15 15:00:00 9.7 8 Norte 36 Noroeste 2.2 -- -- 99
2020-03-15 14:00:00 10.7 14 Noroeste 32 Este 0.2 -- -- 98
2020-03-15 13:00:00 9.8 11 Noroeste 41 Norte 2.6 -- -- 99
2020-03-15 12:00:00 11 10 Oeste 39 Noroeste 0 -- -- 98
2020-03-15 11:00:00 9.9 10 Norte 48 Noroeste 0 -- -- 99
2020-03-15 10:00:00 9 18 Noroeste 40 Noroeste 1.2 -- -- 100
2020-03-15 09:00:00 9.5 7 Noroeste 39 Oeste 0 -- -- 100
2020-03-15 08:00:00 9.2 15 Noroeste 44 Noroeste 0 -- -- 100
2020-03-15 07:00:00 9.1 6 Noroeste 34 Oeste 0 -- -- 100
2020-03-15 06:00:00 9.2 13 Noroeste 39 Noroeste 0.4 -- -- 100
2020-03-15 05:00:00 9.1 17 Noroeste 41 Noroeste 1.2 -- -- 100
2020-03-15 04:00:00 9 9 Oeste 36 Noroeste 0 -- -- 99
2020-03-15 03:00:00 8.7 10 Norte 30 Noroeste 1.4 -- -- 99
2020-03-15 02:00:00 8.7 12 Norte 33 Noroeste 4.4 -- -- 98
2020-03-15 01:00:00 9.6 17 Noroeste 36 Noroeste 0 -- -- 96
2020-03-15 00:00:00 9.6 13 Noroeste 47 Noroeste 0 -- -- 95
2020-03-14 23:00:00 9.4 22 Noroeste 49 Noroeste 0 -- -- 96
2020-03-14 22:00:00 9.6 28 Noroeste 53 Noroeste 0 -- -- 96
2020-03-14 21:00:00 9.9 19 Noroeste 45 Noroeste 0 -- -- 96
2020-03-14 20:00:00 9.9 15 Norte 43 Noroeste 0 -- -- 94
2020-03-14 19:00:00 10.1 14 Noroeste 36 Noroeste 0 -- -- 90
2020-03-14 18:00:00 11.4 10 Noroeste 31 Oeste 0 -- -- 81
2020-03-14 17:00:00 12.1 9 Noroeste 29 Noroeste 0 -- -- 79
2020-03-14 16:00:00 14.3 9 Oeste 33 Nordeste 0 -- -- 70
2020-03-14 15:00:00 12.7 6 Oeste 31 Noroeste 0 -- -- 83
2020-03-14 14:00:00 12.4 7 Norte 20 Noroeste 0 -- -- 86
2020-03-14 13:00:00 12.9 5 Nordeste 27 Nordeste 0 -- -- 81
2020-03-14 12:00:00 13.2 9 Norte 32 Nordeste 0 -- -- 84
2020-03-14 11:00:00 13.4 14 Norte 39 Nordeste 0 -- -- 77
2020-03-14 10:00:00 12.4 18 Norte 46 Noroeste 0 -- -- 79
2020-03-14 09:00:00 11 23 Norte 45 Norte 0 -- -- 84
2020-03-14 08:00:00 10 19 Norte 45 Noroeste 0 -- -- 94
2020-03-14 07:00:00 10 15 Norte 36 Norte 0 -- -- 95
2020-03-14 06:00:00 10.1 10 Norte 33 Nordeste 0 -- -- 96
2020-03-14 05:00:00 10.2 9 Norte 28 Norte 0 -- -- 97
2020-03-14 04:00:00 9.9 14 Nordeste 31 Norte 0 -- -- 95
2020-03-14 03:00:00 10 13 Norte 34 Nordeste 0 -- -- 95
2020-03-14 02:00:00 10.3 12 Nordeste 37 Nordeste 0 -- -- 95
2020-03-14 01:00:00 10.2 15 Norte 42 Este 0 -- -- 95
2020-03-14 00:00:00 10.4 15 Norte 41 Nordeste 0 -- -- 95
2020-03-13 23:00:00 10.5 17 Norte 37 Nordeste 0 -- -- 95
2020-03-13 22:00:00 10.8 14 Norte 33 Nordeste 0 -- -- 95
2020-03-13 21:00:00 10.8 19 Norte 41 Norte 0 -- -- 95
2020-03-13 20:00:00 11 26 Norte 42 Norte 0 -- -- 95
2020-03-13 19:00:00 11 20 Norte 37 Norte 0 -- -- 92
2020-03-13 18:00:00 11.9 20 Norte 34 Norte 0 -- -- 82
2020-03-13 17:00:00 13.3 17 Norte 34 Norte 0 -- -- 68
2020-03-13 16:00:00 13.9 14 Norte 36 Norte 0 -- -- 70
2020-03-13 15:00:00 14 19 Norte 32 Norte 0 -- -- 78
2020-03-13 14:00:00 18.7 8 Noroeste 17 Norte 0 -- -- 58
2020-03-13 13:00:00 20.9 4 Sur 13 Norte 0 -- -- 53
2020-03-13 12:00:00 19.8 4 Oeste 13 Sudeste 0 -- -- 50
2020-03-13 11:00:00 20 5 Sur 12 Sudeste 0 -- -- 48
2020-03-13 10:00:00 19 4 Sur 20 Este 0 -- -- 47
2020-03-13 09:00:00 17.8 6 Sudeste 19 Este 0 -- -- 50
2020-03-13 08:00:00 15.7 10 Sudeste 22 Nordeste 0 -- -- 31
2020-03-13 07:00:00 12.4 0 Calma 14 Sudeste 0 -- -- 44
2020-03-13 06:00:00 12.1 3 Sudoeste 9 Sur 0 -- -- 43
2020-03-13 05:00:00 12.5 4 Oeste 15 Norte 0 -- -- 42
2020-03-13 04:00:00 15.7 7 Norte 23 Norte 0 -- -- 25
2020-03-13 03:00:00 15.6 14 Norte 27 Norte 0 -- -- 24
2020-03-13 02:00:00 16.9 12 Norte 24 Nordeste 0 -- -- 18
2020-03-13 01:00:00 17.9 17 Norte 25 Nordeste 0 -- -- 20
2020-03-13 00:00:00 17.9 14 Norte 22 Norte 0 -- -- 19
2020-03-12 23:00:00 17.9 11 Norte 18 Norte 0 -- -- 20
2020-03-12 22:00:00 17.7 12 Norte 18 Norte 0 -- -- 29
2020-03-12 21:00:00 17.4 5 Norte 11 Norte 0 -- -- 30
2020-03-12 20:00:00 15.4 0 Calma 5 Noroeste 0 -- -- 25
2020-03-12 19:00:00 16.5 3 Oeste 4 Noroeste 0 -- -- 27
2020-03-12 18:00:00 23.2 2 Sudoeste 5 Sudeste 0 -- -- 35
2020-03-12 17:00:00 24.2 3 Este 11 Sudeste 0 -- -- 27
2020-03-12 16:00:00 23.8 7 Sudeste 16 Sur 0 -- -- 34
2020-03-12 15:00:00 25.3 11 Sudeste 20 Sudeste 0 -- -- 31
2020-03-12 14:00:00 27.1 13 Sudeste 21 Sur 0 -- -- 19
2020-03-12 13:00:00 28.2 15 Sur 30 Sudeste 0 -- -- 19
2020-03-12 12:00:00 29 19 Sudeste 29 Sudeste 0 -- -- 19
2020-03-12 11:00:00 27.6 21 Sudeste 30 Sudeste 0 -- -- 17
2020-03-12 10:00:00 26.2 11 Sudeste 26 Sudeste 0 -- -- 17
2020-03-12 09:00:00 23.6 18 Sudeste 33 Este 0 -- -- 14
2020-03-12 08:00:00 19.5 19 Este 33 Sudeste 0 -- -- 13
2020-03-12 07:00:00 15.6 16 Sudeste 33 Este 0 -- -- 16
2020-03-12 06:00:00 13.6 4 Este 18 Este 0 -- -- 20
2020-03-12 05:00:00 14.8 4 Sudeste 9 Sudeste 0 -- -- 18
2020-03-12 04:00:00 15.3 3 Este 13 Norte 0 -- -- 17
2020-03-12 03:00:00 17.2 7 Nordeste 13 Nordeste 0 -- -- 14
2020-03-12 02:00:00 15.4 4 Nordeste 9 Este 0 -- -- 15
2020-03-12 01:00:00 14.8 4 Este 8 Este 0 -- -- 19
2020-03-12 00:00:00 14.6 4 Este 6 Este 0 -- -- 20
2020-03-11 23:00:00 14.8 3 Nordeste 5 Nordeste 0 -- -- 21
2020-03-11 22:00:00 15 2 Este 5 Este 0 -- -- 20
2020-03-11 21:00:00 15 3 Nordeste 5 Este 0 -- -- 23
2020-03-11 20:00:00 14.8 0 Calma 4 Sur 0 -- -- 24
2020-03-11 19:00:00 16.5 2 Sur 8 Sudoeste 0 -- -- 27
2020-03-11 18:00:00 23 2 Sudoeste 12 Sudeste 0 -- -- 22
2020-03-11 17:00:00 24.6 5 Sudeste 11 Sur 0 -- -- 33
2020-03-11 16:00:00 23.7 5 Sudeste 13 Sudeste 0 -- -- 29
2020-03-11 15:00:00 24.3 8 Sudeste 13 Sudeste 0 -- -- 30
2020-03-11 14:00:00 26.4 9 Sudeste 19 Sur 0 -- -- 26
2020-03-11 13:00:00 28.6 12 Sudeste 17 Sudeste 0 -- -- 20
2020-03-11 12:00:00 24 9 Sudeste 20 Sudeste 0 -- -- 24
2020-03-11 11:00:00 24.4 11 Sudeste 18 Sur 0 -- -- 24
2020-03-11 10:00:00 21.6 13 Sudeste 19 Sudeste 0 -- -- 20
2020-03-11 09:00:00 17.7 16 Sudeste 26 Este 0 -- -- 19
2020-03-11 08:00:00 16.7 17 Sudeste 27 Este 0 -- -- 16
2020-03-11 07:00:00 15.8 17 Este 29 Sudeste 0 -- -- 17
2020-03-11 06:00:00 15.6 17 Este 27 Sudeste 0 -- -- 17
2020-03-11 05:00:00 14.6 16 Sudeste 24 Sudeste 0 -- -- 20
2020-03-11 04:00:00 15 14 Este 25 Sudeste 0 -- -- 16
2020-03-11 03:00:00 15.9 15 Este 27 Sudeste 0 -- -- 14
2020-03-11 02:00:00 15.9 16 Este 28 Este 0 -- -- 14
2020-03-11 01:00:00 15.6 15 Sudeste 27 Este 0 -- -- 20
2020-03-11 00:00:00 15.5 18 Este 27 Este 0 -- -- 20
2020-03-10 23:00:00 15 17 Sudeste 26 Este 0 -- -- 22
2020-03-10 22:00:00 13.4 14 Este 24 Este 0 -- -- 19
2020-03-10 21:00:00 13.9 5 Sudeste 16 Sudeste 0 -- -- 16
2020-03-10 20:00:00 13.4 5 Sur 12 Este 0 -- -- 27
2020-03-10 19:00:00 15.4 0 Calma 10 Noroeste 0 -- -- 66
2020-03-10 18:00:00 21.1 5 Nordeste 13 Este 0 -- -- 11
2020-03-10 17:00:00 23.1 6 Este 14 Nordeste 0 -- -- 18
2020-03-10 16:00:00 21.2 5 Sudeste 13 Este 0 -- -- 61
2020-03-10 15:00:00 21.6 8 Sudeste 18 Sudeste 0 -- -- 58
2020-03-10 14:00:00 24 11 Sudeste 17 Sudeste 0 -- -- 49
2020-03-10 13:00:00 24.5 10 Sudeste 17 Sudeste 0 -- -- 40
2020-03-10 12:00:00 26.5 11 Sudeste 18 Sudeste 0 -- -- 27
2020-03-10 11:00:00 25.3 12 Sudeste 20 Sudeste 0 -- -- 19
2020-03-10 10:00:00 23.6 10 Sudeste 17 Sudeste 0 -- -- 15
2020-03-10 09:00:00 21 12 Sudeste 23 Sudeste 0 -- -- 18
2020-03-10 08:00:00 17 13 Este 30 Este 0 -- -- 16
2020-03-10 07:00:00 15.7 18 Este 36 Este 0 -- -- 14
2020-03-10 06:00:00 16 23 Este 35 Este 0 -- -- 8
2020-03-10 05:00:00 16.4 23 Este 38 Este 0 -- -- 17
2020-03-10 04:00:00 16.6 21 Este 43 Este 0 -- -- 16
2020-03-10 03:00:00 16.3 24 Este 44 Este 0 -- -- 20
2020-03-10 02:00:00 16.1 27 Este 48 Este 0 -- -- 22
2020-03-10 01:00:00 16.3 30 Este 50 Este 0 -- -- 22
2020-03-10 00:00:00 16.8 34 Este 50 Sudeste 0 -- -- 21
2020-03-09 23:00:00 17.1 31 Este 48 Este 0 -- -- 26
2020-03-09 22:00:00 16.6 27 Este 41 Este 0 -- -- 27
2020-03-09 21:00:00 16.2 26 Este 37 Este 0 -- -- 27
2020-03-09 20:00:00 13.4 15 Sudeste 22 Sudeste 0 -- -- 44
2020-03-09 19:00:00 14.9 12 Sudeste 17 Este 0 -- -- 53
2020-03-09 18:00:00 18.9 11 Sudeste 15 Este 0 -- -- 43
2020-03-09 17:00:00 21.2 10 Sudeste 19 Sudeste 0 -- -- 36
2020-03-09 16:00:00 23.5 15 Sudeste 27 Sudeste 0 -- -- 34
2020-03-09 15:00:00 23.9 21 Sudeste 36 Sudeste 0 -- -- 30
2020-03-09 14:00:00 25.2 23 Sudeste 37 Sudeste 0 -- -- 28
2020-03-09 13:00:00 25.5 22 Sudeste 35 Sudeste 0 -- -- 34
2020-03-09 12:00:00 25.6 21 Sudeste 32 Sudeste 0 -- -- 40
2020-03-09 11:00:00 24.2 21 Sudeste 42 Sudeste 0 -- -- 37
2020-03-09 10:00:00 21.6 23 Sudeste 45 Este 0 -- -- 39
2020-03-09 09:00:00 20 30 Este 44 Sudeste 0 -- -- 23
2020-03-09 08:00:00 17.1 28 Este 44 Este 0 -- -- 23
2020-03-09 07:00:00 14.2 16 Este 28 Este 0 -- -- 31
2020-03-09 06:00:00 16.1 14 Sudeste 34 Este 0 -- -- 28
2020-03-09 05:00:00 16.4 10 Nordeste 35 Nordeste 0 -- -- 21
2020-03-09 04:00:00 14.8 7 Sudeste 29 Este 0 -- -- 44
2020-03-09 03:00:00 12.5 4 Sudoeste 19 Sur 0 -- -- 59
2020-03-09 02:00:00 13.8 6 Sudoeste 26 Sur 0 -- -- 43
2020-03-09 01:00:00 18 9 Este 36 Este 0 -- -- 23
2020-03-09 00:00:00 18.4 21 Este 39 Este 0 -- -- 19
2020-03-08 23:00:00 18.6 22 Este 41 Este 0 -- -- 18
2020-03-08 22:00:00 18.9 23 Este 38 Este 0 -- -- 17
2020-03-08 21:00:00 18.4 30 Este 44 Este 0 -- -- 17
2020-03-08 20:00:00 17.9 30 Este 44 Este 0 -- -- 20
2020-03-08 19:00:00 17.5 30 Este 40 Sudeste 0 -- -- 24
2020-03-08 18:00:00 17.6 24 Este 33 Este 0 -- -- 41
2020-03-08 17:00:00 20 15 Sudeste 25 Este 0 -- -- 56
2020-03-08 16:00:00 21.9 17 Sudeste 36 Sudeste 0 -- -- 50
2020-03-08 15:00:00 23.6 29 Sudeste 49 Sudeste 0 -- -- 37
2020-03-08 14:00:00 24.2 35 Sudeste 48 Sudeste 0 -- -- 30
2020-03-08 13:00:00 24 31 Sudeste 48 Sudeste 0 -- -- 38
2020-03-08 12:00:00 23.2 24 Sudeste 39 Sudeste 0 -- -- 37
2020-03-08 11:00:00 21.6 21 Este 42 Sudeste 0 -- -- 44
2020-03-08 10:00:00 18.7 18 Este 31 Este 0 -- -- 46
2020-03-08 09:00:00 16.1 12 Sudeste 31 Sudeste 0 -- -- 60
2020-03-08 08:00:00 12.3 4 Norte 22 Este 0 -- -- 72
2020-03-08 07:00:00 10.9 5 Nordeste 19 Este 0 -- -- 75
2020-03-08 06:00:00 11.5 12 Norte 22 Norte 0 -- -- 80
2020-03-08 05:00:00 11.9 13 Norte 28 Nordeste 0 -- -- 79
2020-03-08 04:00:00 12.7 11 Nordeste 23 Norte 0 -- -- 67
2020-03-08 03:00:00 12.5 7 Este 15 Este 0 -- -- 56
2020-03-08 02:00:00 11.1 8 Nordeste 17 Nordeste 0 -- -- 70
2020-03-08 01:00:00 12 6 Este 30 Norte 0 -- -- 64
2020-03-08 00:00:00 11.9 17 Norte 36 Norte 0 -- -- 77